Doylestown, Ohio
Current Conditions -  °F | °C
As of 1:56 PM on Friday 24 Oct 2014 (Local Time) from KBJJ Reporting Station
Clear Clear  
Wind Chill: 61°   Ceiling: Unl
Heat Index: 61°   Visibility: 10mi
Dew Point: 39°   Wind: 7mph
Humidity: 44%   Direction: 300°WNW
Pressure: 30.06"   Gusts: NA
Location:  40.97°N, 81.7°W
Report Text: KBJJ 241756Z AUTO 30006KT 10SM CLR 16/04 A3006 RMK AO2 SLP184 T01610039 10161 20017 58017 TSNO
Loading
Personal Weather Stations






























Interactive Weather Map
Tropical Storm Tracking
New forecast layout! Learn more

10-Day Weather Forecast

Advertisements
Track Severe Weather on mobile